sensor_id;sensor_type;location;lat;lon;timestamp;P1;durP1;ratioP1;P2;durP2;ratioP2
43823;SDS011;29470;53.550;9.926;2023-01-30T00:03:56;59.33;;;25.95;;
43823;SDS011;29470;53.550;9.926;2023-01-30T00:08:59;66.32;;;27.30;;
43823;SDS011;29470;53.550;9.926;2023-01-30T00:14:02;57.75;;;25.65;;
43823;SDS011;29470;53.550;9.926;2023-01-30T00:19:06;60.53;;;26.75;;
43823;SDS011;29470;53.550;9.926;2023-01-30T00:24:09;65.90;;;27.33;;
43823;SDS011;29470;53.550;9.926;2023-01-30T00:29:12;59.97;;;25.92;;
43823;SDS011;29470;53.550;9.926;2023-01-30T00:34:16;56.33;;;25.63;;
43823;SDS011;29470;53.550;9.926;2023-01-30T00:39:19;65.75;;;27.40;;
43823;SDS011;29470;53.550;9.926;2023-01-30T00:44:21;66.53;;;26.63;;
43823;SDS011;29470;53.550;9.926;2023-01-30T00:49:43;61.22;;;26.70;;
43823;SDS011;29470;53.550;9.926;2023-01-30T00:54:46;54.85;;;25.42;;
43823;SDS011;29470;53.550;9.926;2023-01-30T00:59:51;52.17;;;23.88;;
43823;SDS011;29470;53.550;9.926;2023-01-30T01:04:56;53.83;;;24.13;;
43823;SDS011;29470;53.550;9.926;2023-01-30T01:10:00;50.72;;;22.85;;
43823;SDS011;29470;53.550;9.926;2023-01-30T01:15:03;58.30;;;23.95;;
43823;SDS011;29470;53.550;9.926;2023-01-30T01:20:09;56.60;;;24.08;;
43823;SDS011;29470;53.550;9.926;2023-01-30T01:25:14;49.78;;;22.92;;
43823;SDS011;29470;53.550;9.926;2023-01-30T01:30:20;48.10;;;22.45;;
43823;SDS011;29470;53.550;9.926;2023-01-30T01:35:24;48.70;;;22.17;;
43823;SDS011;29470;53.550;9.926;2023-01-30T01:40:27;50.00;;;21.30;;
43823;SDS011;29470;53.550;9.926;2023-01-30T01:45:47;55.75;;;22.52;;
43823;SDS011;29470;53.550;9.926;2023-01-30T01:50:55;48.60;;;22.80;;
43823;SDS011;29470;53.550;9.926;2023-01-30T01:56:02;51.58;;;21.55;;
43823;SDS011;29470;53.550;9.926;2023-01-30T02:01:07;48.72;;;20.95;;
43823;SDS011;29470;53.550;9.926;2023-01-30T02:06:11;50.45;;;21.85;;
43823;SDS011;29470;53.550;9.926;2023-01-30T02:11:16;52.25;;;22.98;;
43823;SDS011;29470;53.550;9.926;2023-01-30T02:16:26;49.70;;;22.10;;
43823;SDS011;29470;53.550;9.926;2023-01-30T02:21:53;50.78;;;22.30;;
43823;SDS011;29470;53.550;9.926;2023-01-30T02:32:57;46.65;;;21.08;;
43823;SDS011;29470;53.550;9.926;2023-01-30T02:38:15;42.95;;;20.00;;
43823;SDS011;29470;53.550;9.926;2023-01-30T02:43:27;46.10;;;20.77;;
43823;SDS011;29470;53.550;9.926;2023-01-30T02:48:38;39.83;;;18.67;;
43823;SDS011;29470;53.550;9.926;2023-01-30T02:53:45;41.53;;;18.52;;
43823;SDS011;29470;53.550;9.926;2023-01-30T02:58:51;37.78;;;17.65;;
43823;SDS011;29470;53.550;9.926;2023-01-30T03:09:34;34.92;;;16.02;;
43823;SDS011;29470;53.550;9.926;2023-01-30T03:14:45;29.88;;;14.02;;
43823;SDS011;29470;53.550;9.926;2023-01-30T03:19:55;28.40;;;13.50;;
43823;SDS011;29470;53.550;9.926;2023-01-30T03:24:58;25.98;;;11.95;;
43823;SDS011;29470;53.550;9.926;2023-01-30T03:30:01;28.88;;;12.98;;
43823;SDS011;29470;53.550;9.926;2023-01-30T03:35:06;28.92;;;14.20;;
43823;SDS011;29470;53.550;9.926;2023-01-30T03:40:11;28.52;;;13.57;;
43823;SDS011;29470;53.550;9.926;2023-01-30T03:45:15;25.15;;;12.93;;
43823;SDS011;29470;53.550;9.926;2023-01-30T03:50:21;24.67;;;12.07;;
43823;SDS011;29470;53.550;9.926;2023-01-30T03:55:24;27.95;;;11.90;;
43823;SDS011;29470;53.550;9.926;2023-01-30T04:00:28;24.30;;;11.18;;
43823;SDS011;29470;53.550;9.926;2023-01-30T04:05:32;23.23;;;11.30;;
43823;SDS011;29470;53.550;9.926;2023-01-30T04:10:39;23.58;;;10.25;;
43823;SDS011;29470;53.550;9.926;2023-01-30T04:15:42;21.90;;;10.63;;
43823;SDS011;29470;53.550;9.926;2023-01-30T04:21:06;19.60;;;9.13;;
43823;SDS011;29470;53.550;9.926;2023-01-30T04:26:12;19.67;;;8.73;;
43823;SDS011;29470;53.550;9.926;2023-01-30T04:31:15;20.80;;;7.50;;
43823;SDS011;29470;53.550;9.926;2023-01-30T04:36:39;15.50;;;7.10;;
43823;SDS011;29470;53.550;9.926;2023-01-30T04:41:43;13.10;;;5.90;;
43823;SDS011;29470;53.550;9.926;2023-01-30T04:46:46;9.98;;;5.03;;
43823;SDS011;29470;53.550;9.926;2023-01-30T04:51:51;9.15;;;4.10;;
43823;SDS011;29470;53.550;9.926;2023-01-30T04:56:54;8.90;;;3.83;;
43823;SDS011;29470;53.550;9.926;2023-01-30T05:01:58;11.43;;;3.45;;
43823;SDS011;29470;53.550;9.926;2023-01-30T05:07:02;11.32;;;3.85;;
43823;SDS011;29470;53.550;9.926;2023-01-30T05:12:05;7.88;;;2.88;;
43823;SDS011;29470;53.550;9.926;2023-01-30T05:17:08;4.85;;;2.53;;
43823;SDS011;29470;53.550;9.926;2023-01-30T05:22:13;10.00;;;2.78;;
43823;SDS011;29470;53.550;9.926;2023-01-30T05:27:16;9.25;;;2.60;;
43823;SDS011;29470;53.550;9.926;2023-01-30T05:32:19;10.43;;;2.13;;
43823;SDS011;29470;53.550;9.926;2023-01-30T05:37:24;8.45;;;1.77;;
43823;SDS011;29470;53.550;9.926;2023-01-30T05:42:26;13.82;;;2.25;;
43823;SDS011;29470;53.550;9.926;2023-01-30T05:47:29;4.57;;;1.58;;
43823;SDS011;29470;53.550;9.926;2023-01-30T05:52:33;8.65;;;1.90;;
43823;SDS011;29470;53.550;9.926;2023-01-30T05:57:36;8.38;;;1.67;;
43823;SDS011;29470;53.550;9.926;2023-01-30T06:02:40;12.90;;;1.70;;
43823;SDS011;29470;53.550;9.926;2023-01-30T06:07:44;11.10;;;1.75;;
43823;SDS011;29470;53.550;9.926;2023-01-30T06:12:47;17.10;;;2.03;;
43823;SDS011;29470;53.550;9.926;2023-01-30T06:17:50;12.35;;;1.75;;
43823;SDS011;29470;53.550;9.926;2023-01-30T06:22:54;12.02;;;1.60;;
43823;SDS011;29470;53.550;9.926;2023-01-30T06:27:57;10.68;;;1.60;;
43823;SDS011;29470;53.550;9.926;2023-01-30T06:32:59;11.98;;;2.10;;
43823;SDS011;29470;53.550;9.926;2023-01-30T06:38:05;7.40;;;1.55;;
43823;SDS011;29470;53.550;9.926;2023-01-30T06:43:09;12.95;;;1.90;;
43823;SDS011;29470;53.550;9.926;2023-01-30T06:48:12;13.00;;;1.85;;
43823;SDS011;29470;53.550;9.926;2023-01-30T06:53:16;14.93;;;1.88;;
43823;SDS011;29470;53.550;9.926;2023-01-30T06:58:19;19.10;;;1.95;;
43823;SDS011;29470;53.550;9.926;2023-01-30T07:03:22;7.85;;;1.30;;
43823;SDS011;29470;53.550;9.926;2023-01-30T07:08:27;9.88;;;2.00;;
43823;SDS011;29470;53.550;9.926;2023-01-30T07:13:30;13.77;;;2.05;;
43823;SDS011;29470;53.550;9.926;2023-01-30T07:18:33;12.70;;;3.60;;
43823;SDS011;29470;53.550;9.926;2023-01-30T07:23:37;16.23;;;3.22;;
43823;SDS011;29470;53.550;9.926;2023-01-30T07:28:40;15.85;;;2.65;;
43823;SDS011;29470;53.550;9.926;2023-01-30T07:33:43;16.48;;;2.50;;
43823;SDS011;29470;53.550;9.926;2023-01-30T07:38:48;15.77;;;3.50;;
43823;SDS011;29470;53.550;9.926;2023-01-30T07:43:50;15.93;;;3.20;;
43823;SDS011;29470;53.550;9.926;2023-01-30T07:48:53;18.35;;;3.47;;
43823;SDS011;29470;53.550;9.926;2023-01-30T07:54:00;19.17;;;4.20;;
43823;SDS011;29470;53.550;9.926;2023-01-30T07:59:04;26.85;;;4.13;;
43823;SDS011;29470;53.550;9.926;2023-01-30T08:04:07;19.23;;;3.13;;
43823;SDS011;29470;53.550;9.926;2023-01-30T08:09:11;23.75;;;4.10;;
43823;SDS011;29470;53.550;9.926;2023-01-30T08:14:14;24.35;;;3.80;;
43823;SDS011;29470;53.550;9.926;2023-01-30T08:19:17;25.00;;;3.60;;
43823;SDS011;29470;53.550;9.926;2023-01-30T08:24:21;22.90;;;3.45;;
43823;SDS011;29470;53.550;9.926;2023-01-30T08:29:24;14.77;;;3.30;;
43823;SDS011;29470;53.550;9.926;2023-01-30T08:34:29;18.80;;;3.22;;
43823;SDS011;29470;53.550;9.926;2023-01-30T08:39:33;21.58;;;3.60;;
43823;SDS011;29470;53.550;9.926;2023-01-30T08:44:37;22.70;;;4.07;;
43823;SDS011;29470;53.550;9.926;2023-01-30T08:49:40;26.83;;;3.85;;
43823;SDS011;29470;53.550;9.926;2023-01-30T08:54:45;21.92;;;3.55;;
43823;SDS011;29470;53.550;9.926;2023-01-30T08:59:48;24.13;;;3.50;;
43823;SDS011;29470;53.550;9.926;2023-01-30T09:04:51;26.13;;;4.35;;
43823;SDS011;29470;53.550;9.926;2023-01-30T09:09:55;24.67;;;3.78;;
43823;SDS011;29470;53.550;9.926;2023-01-30T09:14:58;19.90;;;4.05;;
43823;SDS011;29470;53.550;9.926;2023-01-30T09:20:01;20.70;;;3.58;;
43823;SDS011;29470;53.550;9.926;2023-01-30T09:25:06;28.42;;;5.28;;
43823;SDS011;29470;53.550;9.926;2023-01-30T09:30:09;22.98;;;3.83;;
43823;SDS011;29470;53.550;9.926;2023-01-30T09:35:13;26.50;;;3.65;;
43823;SDS011;29470;53.550;9.926;2023-01-30T09:40:19;27.05;;;3.72;;
43823;SDS011;29470;53.550;9.926;2023-01-30T09:51:01;23.08;;;3.83;;
43823;SDS011;29470;53.550;9.926;2023-01-30T09:56:25;18.02;;;3.10;;
43823;SDS011;29470;53.550;9.926;2023-01-30T10:01:29;22.17;;;3.85;;
43823;SDS011;29470;53.550;9.926;2023-01-30T10:06:45;42.30;;;7.90;;
43823;SDS011;29470;53.550;9.926;2023-01-30T10:12:00;22.33;;;4.20;;
43823;SDS011;29470;53.550;9.926;2023-01-30T10:17:26;24.40;;;3.63;;
43823;SDS011;29470;53.550;9.926;2023-01-30T10:22:37;26.08;;;4.72;;
43823;SDS011;29470;53.550;9.926;2023-01-30T10:27:52;20.20;;;3.40;;
43823;SDS011;29470;53.550;9.926;2023-01-30T10:33:01;15.48;;;2.65;;
43823;SDS011;29470;53.550;9.926;2023-01-30T10:38:10;14.95;;;2.13;;
43823;SDS011;29470;53.550;9.926;2023-01-30T10:43:19;27.48;;;3.42;;
43823;SDS011;29470;53.550;9.926;2023-01-30T10:48:34;16.27;;;3.22;;
43823;SDS011;29470;53.550;9.926;2023-01-30T10:53:52;17.05;;;3.40;;
43823;SDS011;29470;53.550;9.926;2023-01-30T10:59:02;15.77;;;2.50;;
43823;SDS011;29470;53.550;9.926;2023-01-30T11:04:22;13.75;;;2.33;;
43823;SDS011;29470;53.550;9.926;2023-01-30T11:09:37;11.70;;;2.20;;
43823;SDS011;29470;53.550;9.926;2023-01-30T11:14:50;9.68;;;2.05;;
43823;SDS011;29470;53.550;9.926;2023-01-30T11:20:00;9.77;;;1.52;;
43823;SDS011;29470;53.550;9.926;2023-01-30T11:30:18;7.32;;;1.30;;
43823;SDS011;29470;53.550;9.926;2023-01-30T11:35:23;4.13;;;0.85;;
43823;SDS011;29470;53.550;9.926;2023-01-30T11:40:29;8.15;;;1.58;;
43823;SDS011;29470;53.550;9.926;2023-01-30T11:45:37;6.85;;;1.10;;
43823;SDS011;29470;53.550;9.926;2023-01-30T11:50:43;6.78;;;1.27;;
43823;SDS011;29470;53.550;9.926;2023-01-30T11:55:50;12.27;;;1.70;;
43823;SDS011;29470;53.550;9.926;2023-01-30T12:01:08;13.52;;;2.70;;
43823;SDS011;29470;53.550;9.926;2023-01-30T12:06:19;11.80;;;1.83;;
43823;SDS011;29470;53.550;9.926;2023-01-30T12:11:26;18.20;;;3.17;;
43823;SDS011;29470;53.550;9.926;2023-01-30T12:16:39;19.90;;;3.60;;
43823;SDS011;29470;53.550;9.926;2023-01-30T12:21:54;22.75;;;3.10;;
43823;SDS011;29470;53.550;9.926;2023-01-30T12:27:02;15.80;;;2.47;;
43823;SDS011;29470;53.550;9.926;2023-01-30T12:32:10;16.35;;;2.35;;
43823;SDS011;29470;53.550;9.926;2023-01-30T12:37:20;16.38;;;2.30;;
43823;SDS011;29470;53.550;9.926;2023-01-30T12:48:32;20.45;;;4.25;;
43823;SDS011;29470;53.550;9.926;2023-01-30T12:53:55;16.77;;;3.10;;
43823;SDS011;29470;53.550;9.926;2023-01-30T12:59:06;18.45;;;3.00;;
43823;SDS011;29470;53.550;9.926;2023-01-30T13:09:29;18.13;;;3.40;;
43823;SDS011;29470;53.550;9.926;2023-01-30T13:14:40;24.13;;;4.45;;
43823;SDS011;29470;53.550;9.926;2023-01-30T13:19:51;21.45;;;3.17;;
43823;SDS011;29470;53.550;9.926;2023-01-30T13:25:07;28.35;;;3.95;;
43823;SDS011;29470;53.550;9.926;2023-01-30T13:30:20;22.25;;;5.28;;
43823;SDS011;29470;53.550;9.926;2023-01-30T13:35:27;18.30;;;3.47;;
43823;SDS011;29470;53.550;9.926;2023-01-30T13:40:35;17.08;;;3.00;;
43823;SDS011;29470;53.550;9.926;2023-01-30T13:45:41;15.27;;;2.55;;
43823;SDS011;29470;53.550;9.926;2023-01-30T13:56:25;17.88;;;2.30;;
43823;SDS011;29470;53.550;9.926;2023-01-30T14:07:26;17.95;;;3.28;;
43823;SDS011;29470;53.550;9.926;2023-01-30T14:12:33;19.20;;;3.75;;
43823;SDS011;29470;53.550;9.926;2023-01-30T14:17:38;22.60;;;3.33;;
43823;SDS011;29470;53.550;9.926;2023-01-30T14:22:48;22.55;;;4.50;;
43823;SDS011;29470;53.550;9.926;2023-01-30T14:27:53;27.27;;;3.90;;
43823;SDS011;29470;53.550;9.926;2023-01-30T14:33:30;22.58;;;3.95;;
43823;SDS011;29470;53.550;9.926;2023-01-30T14:38:37;30.80;;;4.65;;
43823;SDS011;29470;53.550;9.926;2023-01-30T14:43:48;28.02;;;4.35;;
43823;SDS011;29470;53.550;9.926;2023-01-30T14:48:54;21.55;;;3.13;;
43823;SDS011;29470;53.550;9.926;2023-01-30T14:54:08;19.05;;;3.47;;
43823;SDS011;29470;53.550;9.926;2023-01-30T14:59:26;20.05;;;3.05;;
43823;SDS011;29470;53.550;9.926;2023-01-30T15:04:37;29.88;;;4.53;;
43823;SDS011;29470;53.550;9.926;2023-01-30T15:09:52;22.05;;;4.13;;
43823;SDS011;29470;53.550;9.926;2023-01-30T15:15:00;18.25;;;3.53;;
43823;SDS011;29470;53.550;9.926;2023-01-30T15:20:19;25.52;;;4.70;;
43823;SDS011;29470;53.550;9.926;2023-01-30T15:25:34;27.30;;;4.25;;
43823;SDS011;29470;53.550;9.926;2023-01-30T15:30:58;26.95;;;4.10;;
43823;SDS011;29470;53.550;9.926;2023-01-30T15:36:17;22.27;;;3.85;;
43823;SDS011;29470;53.550;9.926;2023-01-30T15:41:23;23.05;;;4.28;;
43823;SDS011;29470;53.550;9.926;2023-01-30T15:46:29;19.75;;;4.38;;
43823;SDS011;29470;53.550;9.926;2023-01-30T15:51:42;24.42;;;3.92;;
43823;SDS011;29470;53.550;9.926;2023-01-30T15:56:47;22.73;;;4.28;;
43823;SDS011;29470;53.550;9.926;2023-01-30T16:01:57;29.00;;;4.22;;
43823;SDS011;29470;53.550;9.926;2023-01-30T16:07:12;29.50;;;4.55;;
43823;SDS011;29470;53.550;9.926;2023-01-30T16:12:23;24.13;;;4.28;;
43823;SDS011;29470;53.550;9.926;2023-01-30T16:17:28;25.35;;;4.47;;
43823;SDS011;29470;53.550;9.926;2023-01-30T16:22:32;33.03;;;5.22;;
43823;SDS011;29470;53.550;9.926;2023-01-30T16:27:37;28.00;;;4.30;;
43823;SDS011;29470;53.550;9.926;2023-01-30T16:32:41;25.13;;;4.03;;
43823;SDS011;29470;53.550;9.926;2023-01-30T16:37:44;27.35;;;4.82;;
43823;SDS011;29470;53.550;9.926;2023-01-30T16:42:55;28.42;;;3.70;;
43823;SDS011;29470;53.550;9.926;2023-01-30T16:48:02;24.85;;;4.05;;
43823;SDS011;29470;53.550;9.926;2023-01-30T16:53:26;24.45;;;3.85;;
43823;SDS011;29470;53.550;9.926;2023-01-30T16:58:32;31.58;;;4.43;;
43823;SDS011;29470;53.550;9.926;2023-01-30T17:03:39;24.70;;;3.75;;
43823;SDS011;29470;53.550;9.926;2023-01-30T17:08:44;21.30;;;3.97;;
43823;SDS011;29470;53.550;9.926;2023-01-30T17:13:58;16.90;;;4.28;;
43823;SDS011;29470;53.550;9.926;2023-01-30T17:19:17;18.10;;;2.95;;
43823;SDS011;29470;53.550;9.926;2023-01-30T17:24:21;21.75;;;3.65;;
43823;SDS011;29470;53.550;9.926;2023-01-30T17:29:27;17.73;;;3.58;;
43823;SDS011;29470;53.550;9.926;2023-01-30T17:34:43;18.93;;;3.13;;
43823;SDS011;29470;53.550;9.926;2023-01-30T17:39:46;13.50;;;2.55;;
43823;SDS011;29470;53.550;9.926;2023-01-30T17:44:51;11.60;;;2.28;;
43823;SDS011;29470;53.550;9.926;2023-01-30T17:49:54;16.42;;;3.47;;
43823;SDS011;29470;53.550;9.926;2023-01-30T17:54:57;13.60;;;2.95;;
43823;SDS011;29470;53.550;9.926;2023-01-30T18:00:01;19.88;;;2.90;;
43823;SDS011;29470;53.550;9.926;2023-01-30T18:05:09;20.05;;;3.47;;
43823;SDS011;29470;53.550;9.926;2023-01-30T18:10:14;16.98;;;3.58;;
43823;SDS011;29470;53.550;9.926;2023-01-30T18:15:22;18.65;;;3.70;;
43823;SDS011;29470;53.550;9.926;2023-01-30T18:20:25;24.52;;;4.28;;
43823;SDS011;29470;53.550;9.926;2023-01-30T18:25:28;22.05;;;3.92;;
43823;SDS011;29470;53.550;9.926;2023-01-30T18:30:32;20.35;;;3.25;;
43823;SDS011;29470;53.550;9.926;2023-01-30T18:35:36;20.55;;;3.47;;
43823;SDS011;29470;53.550;9.926;2023-01-30T18:40:39;20.30;;;3.28;;
43823;SDS011;29470;53.550;9.926;2023-01-30T18:45:43;17.77;;;2.83;;
43823;SDS011;29470;53.550;9.926;2023-01-30T18:50:46;21.58;;;3.08;;
43823;SDS011;29470;53.550;9.926;2023-01-30T18:55:49;20.52;;;4.32;;
43823;SDS011;29470;53.550;9.926;2023-01-30T19:00:56;15.07;;;2.60;;
43823;SDS011;29470;53.550;9.926;2023-01-30T19:06:01;11.95;;;3.10;;
43823;SDS011;29470;53.550;9.926;2023-01-30T19:11:05;19.70;;;3.35;;
43823;SDS011;29470;53.550;9.926;2023-01-30T19:16:38;23.45;;;3.28;;
43823;SDS011;29470;53.550;9.926;2023-01-30T19:22:02;17.70;;;3.25;;
43823;SDS011;29470;53.550;9.926;2023-01-30T19:27:08;13.18;;;2.13;;
43823;SDS011;29470;53.550;9.926;2023-01-30T19:32:37;14.45;;;2.58;;
43823;SDS011;29470;53.550;9.926;2023-01-30T19:37:40;16.23;;;2.58;;
43823;SDS011;29470;53.550;9.926;2023-01-30T19:42:49;16.48;;;2.40;;
43823;SDS011;29470;53.550;9.926;2023-01-30T19:48:01;9.45;;;1.90;;
43823;SDS011;29470;53.550;9.926;2023-01-30T19:53:05;14.63;;;2.65;;
43823;SDS011;29470;53.550;9.926;2023-01-30T19:58:09;9.57;;;2.63;;
43823;SDS011;29470;53.550;9.926;2023-01-30T20:03:16;11.75;;;2.42;;
43823;SDS011;29470;53.550;9.926;2023-01-30T20:08:19;16.65;;;2.30;;
43823;SDS011;29470;53.550;9.926;2023-01-30T20:13:33;16.50;;;2.80;;
43823;SDS011;29470;53.550;9.926;2023-01-30T20:18:38;19.13;;;3.22;;
43823;SDS011;29470;53.550;9.926;2023-01-30T20:23:43;20.17;;;2.90;;
43823;SDS011;29470;53.550;9.926;2023-01-30T20:28:52;17.63;;;2.75;;
43823;SDS011;29470;53.550;9.926;2023-01-30T20:34:00;14.88;;;2.95;;
43823;SDS011;29470;53.550;9.926;2023-01-30T20:39:04;16.75;;;3.00;;
43823;SDS011;29470;53.550;9.926;2023-01-30T20:44:12;18.65;;;2.60;;
43823;SDS011;29470;53.550;9.926;2023-01-30T20:49:18;19.40;;;3.25;;
43823;SDS011;29470;53.550;9.926;2023-01-30T20:54:23;16.33;;;2.70;;
43823;SDS011;29470;53.550;9.926;2023-01-30T20:59:27;14.57;;;3.22;;
43823;SDS011;29470;53.550;9.926;2023-01-30T21:04:33;15.50;;;2.88;;
43823;SDS011;29470;53.550;9.926;2023-01-30T21:09:38;15.23;;;2.60;;
43823;SDS011;29470;53.550;9.926;2023-01-30T21:14:46;12.07;;;2.53;;
43823;SDS011;29470;53.550;9.926;2023-01-30T21:19:52;18.15;;;2.30;;
43823;SDS011;29470;53.550;9.926;2023-01-30T21:24:57;11.10;;;2.33;;
43823;SDS011;29470;53.550;9.926;2023-01-30T21:30:02;9.98;;;1.98;;
43823;SDS011;29470;53.550;9.926;2023-01-30T21:35:07;10.80;;;1.77;;
43823;SDS011;29470;53.550;9.926;2023-01-30T21:40:11;14.15;;;2.30;;
43823;SDS011;29470;53.550;9.926;2023-01-30T21:45:33;16.60;;;3.00;;
43823;SDS011;29470;53.550;9.926;2023-01-30T21:50:38;14.05;;;2.33;;
43823;SDS011;29470;53.550;9.926;2023-01-30T21:55:41;17.92;;;2.40;;
43823;SDS011;29470;53.550;9.926;2023-01-30T22:00:44;15.82;;;2.97;;
43823;SDS011;29470;53.550;9.926;2023-01-30T22:05:51;20.40;;;2.75;;
43823;SDS011;29470;53.550;9.926;2023-01-30T22:11:02;14.40;;;2.17;;
43823;SDS011;29470;53.550;9.926;2023-01-30T22:16:07;18.67;;;2.75;;
43823;SDS011;29470;53.550;9.926;2023-01-30T22:21:13;16.40;;;2.70;;
43823;SDS011;29470;53.550;9.926;2023-01-30T22:26:18;14.98;;;2.40;;
43823;SDS011;29470;53.550;9.926;2023-01-30T22:31:29;11.13;;;2.95;;
43823;SDS011;29470;53.550;9.926;2023-01-30T22:36:36;10.35;;;1.83;;
43823;SDS011;29470;53.550;9.926;2023-01-30T22:41:39;12.05;;;1.70;;
43823;SDS011;29470;53.550;9.926;2023-01-30T22:46:45;11.05;;;1.50;;
43823;SDS011;29470;53.550;9.926;2023-01-30T22:51:51;11.23;;;1.67;;
43823;SDS011;29470;53.550;9.926;2023-01-30T22:56:54;11.75;;;2.13;;
43823;SDS011;29470;53.550;9.926;2023-01-30T23:01:57;12.65;;;2.15;;
43823;SDS011;29470;53.550;9.926;2023-01-30T23:07:02;9.10;;;1.45;;
43823;SDS011;29470;53.550;9.926;2023-01-30T23:12:05;11.48;;;1.60;;
43823;SDS011;29470;53.550;9.926;2023-01-30T23:17:25;16.55;;;2.47;;
43823;SDS011;29470;53.550;9.926;2023-01-30T23:22:49;16.77;;;3.00;;
43823;SDS011;29470;53.550;9.926;2023-01-30T23:27:53;11.40;;;2.17;;
43823;SDS011;29470;53.550;9.926;2023-01-30T23:32:56;9.20;;;2.03;;
43823;SDS011;29470;53.550;9.926;2023-01-30T23:38:00;12.98;;;2.00;;
43823;SDS011;29470;53.550;9.926;2023-01-30T23:43:19;11.40;;;2.15;;
43823;SDS011;29470;53.550;9.926;2023-01-30T23:48:22;13.52;;;2.20;;
43823;SDS011;29470;53.550;9.926;2023-01-30T23:53:26;12.15;;;2.65;;
43823;SDS011;29470;53.550;9.926;2023-01-30T23:58:29;13.45;;;2.55;;
